Time;durP1;ratioP1;P1;durP2;ratioP2;P2;SDS_P1;SDS_P2;PMS_P1;PMS_P2;Temp;Humidity;BMP_temperature;BMP_pressure;BME280_temperature;BME280_humidity;BME280_pressure;Samples;Min_cycle;Max_cycle;Signal;HPM_P1;HPM_P2
2022/09/13 00:00:19;;;;;;;;;;;;;;;18.51;100.00;97675.31;5075634;28;19992;-74
2022/09/13 00:02:45;;;;;;;;;;;;;;;18.52;100.00;97681.50;5075955;28;19932;-75
2022/09/13 00:05:11;;;;;;;;;;;;;;;18.54;100.00;97674.66;5075834;28;19995;-75
2022/09/13 00:07:38;;;;;;;;;;;;;;;18.55;100.00;97672.75;5073489;28;19925;-75
2022/09/13 00:10:04;;;;;;;;;;;;;;;18.57;100.00;97670.56;5055722;28;19932;-75
2022/09/13 00:12:31;;;;;;;;;;;;;;;18.59;100.00;97660.19;5077197;28;19958;-75
2022/09/13 00:14:57;;;;;;;;;;;;;;;18.55;100.00;97661.94;5077035;28;19971;-75
2022/09/13 00:17:26;;;;;;;;;;;;;;;18.51;100.00;97648.25;5074245;28;19928;-75
2022/09/13 00:19:53;;;;;;;;;;;;;;;18.52;100.00;97651.78;5073587;28;19955;-74
2022/09/13 00:22:19;;;;;;;;;;;;;;;18.52;100.00;97659.88;5075842;28;19952;-74
2022/09/13 00:24:45;;;;;;;;;;;;;;;18.51;100.00;97650.16;5083672;28;20458;-74
2022/09/13 00:27:12;;;;;;;;;;;;;;;18.53;100.00;97656.06;5076590;28;19924;-74
2022/09/13 00:29:39;;;;;;;;;;;;;;;18.52;100.00;97643.66;5073698;28;20047;-75
2022/09/13 00:32:05;;;;;;;;;;;;;;;18.48;100.00;97650.78;5074069;28;19925;-75
2022/09/13 00:34:34;;;;;;;;;;;;;;;18.46;100.00;97653.03;5077054;28;20000;-75
2022/09/13 00:37:00;;;;;;;;;;;;;;;18.51;100.00;97658.28;5076960;28;19988;-74
2022/09/13 00:39:27;;;;;;;;;;;;;;;18.48;100.00;97661.59;5073605;28;19984;-75
2022/09/13 00:41:53;;;;;;;;;;;;;;;18.45;100.00;97662.22;5073596;28;19992;-74
2022/09/13 00:44:38;;;;;;;;;;;;;;;18.45;100.00;97657.63;5075571;28;19959;-75
2022/09/13 00:47:05;;;;;;;;;;;;;;;18.43;100.00;97648.25;5076753;28;19924;-74
2022/09/13 00:49:36;;;;;;;;;;;;;;;18.41;100.00;97642.38;5077053;28;19952;-75
2022/09/13 00:52:06;;;;;;;;;;;;;;;18.42;100.00;97642.03;5076941;28;19999;-75
2022/09/13 00:54:36;;;;;;;;;;;;;;;18.41;100.00;97639.66;5076787;28;20020;-74
2022/09/13 00:57:04;;;;;;;;;;;;;;;18.38;100.00;97645.72;5076744;28;19925;-75
2022/09/13 00:59:33;;;;;;;;;;;;;;;18.46;100.00;97639.50;5076779;28;19931;-75
2022/09/13 01:02:00;;;;;;;;;;;;;;;18.37;100.00;97644.13;5077031;28;19992;-74
2022/09/13 01:04:28;;;;;;;;;;;;;;;18.38;100.00;97640.31;5079939;28;19988;-75
2022/09/13 01:06:58;;;;;;;;;;;;;;;18.37;100.00;97625.19;5080176;28;19992;-75
2022/09/13 01:09:25;;;;;;;;;;;;;;;18.33;100.00;97631.25;5077281;28;19952;-75
2022/09/13 01:11:54;;;;;;;;;;;;;;;18.27;100.00;97632.53;5080672;28;19955;-75
2022/09/13 01:14:22;;;;;;;;;;;;;;;18.25;100.00;97631.25;5064799;28;19925;-75
2022/09/13 01:16:48;;;;;;;;;;;;;;;18.27;100.00;97632.53;5080930;28;20067;-75
2022/09/13 01:19:15;;;;;;;;;;;;;;;18.25;100.00;97620.44;5078197;28;20015;-75
2022/09/13 01:22:02;;;;;;;;;;;;;;;18.31;100.00;97617.25;5076073;28;19984;-75
2022/09/13 01:24:52;;;;;;;;;;;;;;;18.31;100.00;97614.56;5051108;28;19921;-75
2022/09/13 01:27:28;;;;;;;;;;;;;;;18.28;100.00;97617.09;5079038;28;19925;-75
2022/09/13 01:30:07;;;;;;;;;;;;;;;18.27;100.00;97624.41;5062046;28;19925;-75
2022/09/13 01:32:37;;;;;;;;;;;;;;;18.21;100.00;97614.06;5076228;28;20012;-75
2022/09/13 01:35:13;;;;;;;;;;;;;;;18.21;100.00;97623.00;5076061;28;19996;-75
2022/09/13 01:37:46;;;;;;;;;;;;;;;18.22;100.00;97624.59;5079712;28;19934;-75
2022/09/13 01:40:17;;;;;;;;;;;;;;;18.17;100.00;97622.03;5078293;28;19967;-75
2022/09/13 01:42:52;;;;;;;;;;;;;;;18.18;100.00;97622.81;5075841;28;19925;-73
2022/09/13 01:45:28;;;;;;;;;;;;;;;18.20;100.00;97610.56;5078166;28;19931;-74
2022/09/13 01:47:57;;;;;;;;;;;;;;;18.21;100.00;97614.88;5079216;28;19924;-74
2022/09/13 01:50:30;;;;;;;;;;;;;;;18.22;100.00;97602.16;5076303;28;19951;-75
2022/09/13 01:52:57;;;;;;;;;;;;;;;18.21;100.00;97611.38;5083111;28;19924;-74
2022/09/13 01:55:28;;;;;;;;;;;;;;;18.16;100.00;97606.16;5076380;28;19929;-75
2022/09/13 01:57:57;;;;;;;;;;;;;;;18.16;100.00;97603.44;5057892;28;19964;-75
2022/09/13 02:00:24;;;;;;;;;;;;;;;18.16;100.00;97604.25;5083328;28;19956;-75
2022/09/13 02:02:53;;;;;;;;;;;;;;;18.15;100.00;97604.53;5080459;28;19927;-74
2022/09/13 02:05:23;;;;;;;;;;;;;;;18.17;100.00;97591.50;5077298;28;20019;-75
2022/09/13 02:07:53;;;;;;;;;;;;;;;18.19;100.00;97606.31;5075605;28;19967;-74
2022/09/13 02:10:22;;;;;;;;;;;;;;;18.14;100.00;97606.44;5077939;28;19929;-74
2022/09/13 02:12:52;;;;;;;;;;;;;;;18.13;100.00;97602.19;5060953;28;19924;-74
2022/09/13 02:15:21;;;;;;;;;;;;;;;18.12;100.00;97599.78;5076586;28;19996;-74
2022/09/13 02:17:50;;;;;;;;;;;;;;;18.07;100.00;97603.41;5075201;28;19985;-74
2022/09/13 02:20:19;;;;;;;;;;;;;;;18.10;100.00;97613.63;5077128;28;19924;-75
2022/09/13 02:22:48;;;;;;;;;;;;;;;18.11;100.00;97617.09;5078742;28;20031;-75
2022/09/13 02:25:16;;;;;;;;;;;;;;;18.12;100.00;97624.09;5077326;28;20256;-75
2022/09/13 02:27:46;;;;;;;;;;;;;;;18.10;100.00;97639.84;5075394;28;19956;-74
2022/09/13 02:30:14;;;;;;;;;;;;;;;18.13;100.00;97637.31;5076275;28;19931;-75
2022/09/13 02:32:43;;;;;;;;;;;;;;;18.08;100.00;97629.34;5078470;28;19992;-75
2022/09/13 02:35:16;;;;;;;;;;;;;;;18.06;100.00;97625.38;5078074;28;19929;-75
2022/09/13 02:37:45;;;;;;;;;;;;;;;18.04;100.00;97627.59;5075586;28;20295;-75
2022/09/13 02:40:14;;;;;;;;;;;;;;;18.04;100.00;97625.69;5075960;28;19987;-75
2022/09/13 02:42:43;;;;;;;;;;;;;;;17.98;100.00;97623.47;5077964;28;20015;-75
2022/09/13 02:45:10;;;;;;;;;;;;;;;18.04;100.00;97614.88;5077399;28;19952;-75
2022/09/13 02:47:44;;;;;;;;;;;;;;;18.03;100.00;97628.72;5076908;28;19921;-75
2022/09/13 02:50:21;;;;;;;;;;;;;;;17.90;100.00;97621.53;5080017;28;20001;-75
2022/09/13 02:52:50;;;;;;;;;;;;;;;17.94;100.00;97620.59;5078676;28;19931;-75
2022/09/13 02:55:19;;;;;;;;;;;;;;;17.98;100.00;97616.13;5076060;28;19935;-74
2022/09/13 02:57:50;;;;;;;;;;;;;;;17.96;100.00;97626.47;5074666;28;19988;-75
2022/09/13 03:00:18;;;;;;;;;;;;;;;17.93;100.00;97623.63;5076764;28;19956;-76
2022/09/13 03:02:47;;;;;;;;;;;;;;;17.91;100.00;97634.75;5077342;28;19925;-75
2022/09/13 03:05:14;;;;;;;;;;;;;;;17.94;100.00;97617.91;5077384;28;19924;-75
2022/09/13 03:07:41;;;;;;;;;;;;;;;17.94;100.00;97626.00;5074444;28;20926;-75
2022/09/13 03:10:09;;;;;;;;;;;;;;;17.93;100.00;97623.63;5074793;28;19925;-75
2022/09/13 03:12:45;;;;;;;;;;;;;;;17.93;100.00;97624.41;5077918;28;19920;-74
2022/09/13 03:15:16;;;;;;;;;;;;;;;17.93;100.00;97621.72;5058990;28;19950;-74
2022/09/13 03:17:49;;;;;;;;;;;;;;;17.81;100.00;97610.75;5074718;28;19928;-75
2022/09/13 03:20:21;;;;;;;;;;;;;;;17.83;100.00;97596.91;5057954;28;19976;-74
2022/09/13 03:23:02;;;;;;;;;;;;;;;17.79;100.00;97588.66;5078520;28;19952;-74
2022/09/13 03:25:35;;;;;;;;;;;;;;;17.76;100.00;97578.50;5071892;28;19980;-75
2022/09/13 03:28:08;;;;;;;;;;;;;;;17.73;100.00;97581.81;5074154;28;19991;-75
2022/09/13 03:30:37;;;;;;;;;;;;;;;17.64;100.00;97579.09;5074260;28;19960;-75
2022/09/13 03:33:06;;;;;;;;;;;;;;;17.58;100.00;97569.56;5074190;28;19948;-75
2022/09/13 03:35:38;;;;;;;;;;;;;;;17.28;100.00;97578.53;5078384;28;19995;-75
2022/09/13 03:38:06;;;;;;;;;;;;;;;17.12;100.00;97564.69;5076486;28;19960;-75
2022/09/13 03:40:40;;;;;;;;;;;;;;;17.08;100.00;97566.41;5079005;28;19952;-75
2022/09/13 03:43:10;;;;;;;;;;;;;;;17.11;100.00;97565.78;5078232;28;19921;-75
2022/09/13 03:45:39;;;;;;;;;;;;;;;16.93;100.00;97558.75;5074535;28;19967;-73
2022/09/13 03:48:06;;;;;;;;;;;;;;;16.83;100.00;97559.03;5074846;28;19925;-75
2022/09/13 03:50:35;;;;;;;;;;;;;;;16.97;100.00;97554.31;5077986;28;19988;-75
2022/09/13 03:53:04;;;;;;;;;;;;;;;17.09;100.00;97568.00;5077970;28;19935;-74
2022/09/13 03:55:32;;;;;;;;;;;;;;;17.17;100.00;97559.16;5073902;28;19939;-75
2022/09/13 03:57:59;;;;;;;;;;;;;;;17.27;100.00;97564.25;5074097;28;19965;-75
2022/09/13 04:00:25;;;;;;;;;;;;;;;17.35;100.00;97565.38;5076561;28;20023;-74
2022/09/13 04:02:51;;;;;;;;;;;;;;;17.41;100.00;97561.41;5077073;28;19924;-75
2022/09/13 04:05:17;;;;;;;;;;;;;;;17.45;100.00;97573.19;5075203;28;19984;-74
2022/09/13 04:07:45;;;;;;;;;;;;;;;17.49;100.00;97573.31;5073697;28;20424;-74
2022/09/13 04:10:11;;;;;;;;;;;;;;;17.50;100.00;97574.94;5075076;28;19992;-75
2022/09/13 04:12:40;;;;;;;;;;;;;;;17.52;100.00;97575.41;5077477;28;19921;-75
2022/09/13 04:15:07;;;;;;;;;;;;;;;17.52;100.00;97578.09;5076743;28;19939;-74
2022/09/13 04:17:33;;;;;;;;;;;;;;;17.53;100.00;97579.69;5055549;28;19925;-74
2022/09/13 04:19:59;;;;;;;;;;;;;;;17.49;100.00;97581.44;5073546;28;19925;-74
2022/09/13 04:22:26;;;;;;;;;;;;;;;17.47;100.00;97575.56;5059859;28;19983;-75
2022/09/13 04:24:53;;;;;;;;;;;;;;;17.38;100.00;97580.16;5080944;28;19997;-74
2022/09/13 04:27:20;;;;;;;;;;;;;;;17.35;100.00;97580.78;5078882;28;19925;-75
2022/09/13 04:29:46;;;;;;;;;;;;;;;17.40;100.00;97577.91;5077769;28;19921;-75
2022/09/13 04:32:12;;;;;;;;;;;;;;;17.32;100.00;97584.91;5078700;28;19964;-75
2022/09/13 04:34:39;;;;;;;;;;;;;;;17.22;100.00;97583.28;5080843;28;19967;-75
2022/09/13 04:37:05;;;;;;;;;;;;;;;17.10;100.00;97582.28;5080601;28;19925;-74
2022/09/13 04:39:32;;;;;;;;;;;;;;;17.17;100.00;97582.66;5077403;28;19956;-75
2022/09/13 04:42:01;;;;;;;;;;;;;;;17.18;100.00;97587.72;5078157;28;19960;-75
2022/09/13 04:44:27;;;;;;;;;;;;;;;17.19;100.00;97589.31;5080632;28;19924;-74
2022/09/13 04:46:54;;;;;;;;;;;;;;;17.18;100.00;97597.72;5079623;28;19951;-75
2022/09/13 04:49:21;;;;;;;;;;;;;;;17.08;100.00;97590.69;5078816;28;20121;-75
2022/09/13 04:51:48;;;;;;;;;;;;;;;17.04;100.00;97587.03;5077752;28;19989;-74
2022/09/13 04:54:15;;;;;;;;;;;;;;;17.07;100.00;97593.72;5079038;28;19988;-75
2022/09/13 04:56:41;;;;;;;;;;;;;;;17.14;100.00;97600.22;5080571;28;19967;-75
2022/09/13 04:59:09;;;;;;;;;;;;;;;16.82;100.00;97591.69;5080312;28;19934;-75
2022/09/13 05:01:36;;;;;;;;;;;;;;;16.45;100.00;97601.00;5076938;28;19925;-75
2022/09/13 05:04:02;;;;;;;;;;;;;;;16.41;100.00;97605.41;5076873;28;19925;-75
2022/09/13 05:06:29;;;;;;;;;;;;;;;16.18;100.00;97607.31;5080279;28;19951;-74
2022/09/13 05:08:56;;;;;;;;;;;;;;;16.29;100.00;97608.66;5080123;28;19928;-76
2022/09/13 05:11:22;;;;;;;;;;;;;;;16.13;100.00;97613.63;5078040;28;19948;-76
2022/09/13 05:13:51;;;;;;;;;;;;;;;15.99;100.00;97610.19;5077496;28;19958;-74
2022/09/13 05:16:19;;;;;;;;;;;;;;;15.65;100.00;97617.97;5060514;28;20448;-74
2022/09/13 05:18:46;;;;;;;;;;;;;;;15.41;100.00;97622.75;5080580;28;19992;-74
2022/09/13 05:21:12;;;;;;;;;;;;;;;15.50;100.00;97623.66;5079111;28;19929;-74
2022/09/13 05:23:38;;;;;;;;;;;;;;;15.37;100.00;97613.69;5076748;28;20004;-74
2022/09/13 05:26:05;;;;;;;;;;;;;;;15.27;100.00;97609.31;5076911;28;20035;-74
2022/09/13 05:28:33;;;;;;;;;;;;;;;15.20;100.00;97613.47;5080372;28;19929;-75
2022/09/13 05:31:00;;;;;;;;;;;;;;;14.97;100.00;97604.53;5080151;28;19956;-75
2022/09/13 05:33:29;;;;;;;;;;;;;;;14.89;100.00;97592.56;5076694;28;19964;-75
2022/09/13 05:35:55;;;;;;;;;;;;;;;14.82;100.00;97602.13;5076280;28;19987;-75
2022/09/13 05:38:22;;;;;;;;;;;;;;;14.72;100.00;97602.31;5078732;28;19995;-74
2022/09/13 05:40:48;;;;;;;;;;;;;;;14.65;100.00;97601.91;5079886;28;19924;-76
2022/09/13 05:43:14;;;;;;;;;;;;;;;14.67;100.00;97610.47;5078612;28;19931;-74
2022/09/13 05:45:41;;;;;;;;;;;;;;;14.79;100.00;97618.84;5076426;28;19984;-75
2022/09/13 05:48:07;;;;;;;;;;;;;;;15.21;100.00;97623.16;5076861;28;19924;-75
2022/09/13 05:50:38;;;;;;;;;;;;;;;15.54;100.00;97624.66;5079740;28;19952;-74
2022/09/13 05:53:04;;;;;;;;;;;;;;;14.93;100.00;97620.47;5080072;28;19996;-75
2022/09/13 05:55:31;;;;;;;;;;;;;;;14.68;100.00;97612.84;5076256;28;20008;-75
2022/09/13 05:57:57;;;;;;;;;;;;;;;14.70;100.00;97628.69;5076030;28;20000;-75
2022/09/13 06:00:24;;;;;;;;;;;;;;;14.75;100.00;97621.34;5078836;28;19924;-75
2022/09/13 06:02:50;;;;;;;;;;;;;;;14.99;100.00;97621.97;5079406;28;19967;-74
2022/09/13 06:05:16;;;;;;;;;;;;;;;15.33;100.00;97618.06;5077827;28;19924;-74
2022/09/13 06:07:44;;;;;;;;;;;;;;;15.06;100.00;97624.25;5058571;28;19956;-75
2022/09/13 06:10:11;;;;;;;;;;;;;;;15.06;100.00;97626.94;5076913;28;19935;-74
2022/09/13 06:12:37;;;;;;;;;;;;;;;14.45;100.00;97632.63;5079217;28;19975;-74
2022/09/13 06:15:04;;;;;;;;;;;;;;;14.33;100.00;97637.63;5079061;28;19920;-74
2022/09/13 06:17:30;;;;;;;;;;;;;;;14.70;100.00;97615.25;5075739;28;19970;-74
2022/09/13 06:19:57;;;;;;;;;;;;;;;14.71;100.00;97617.63;5075627;28;19982;-75
2022/09/13 06:22:23;;;;;;;;;;;;;;;14.46;100.00;97620.75;5078556;28;19924;-75
2022/09/13 06:24:51;;;;;;;;;;;;;;;14.39;100.00;97621.13;5079108;28;19991;-75
2022/09/13 06:27:17;;;;;;;;;;;;;;;13.93;100.00;97609.50;5077174;28;19963;-75
2022/09/13 06:29:44;;;;;;;;;;;;;;;13.88;100.00;97605.03;5075458;28;19936;-75
2022/09/13 06:32:10;;;;;;;;;;;;;;;13.86;100.00;97603.72;5076060;28;19931;-75
2022/09/13 06:34:36;;;;;;;;;;;;;;;13.85;100.00;97610.16;5078416;28;19924;-75
2022/09/13 06:37:03;;;;;;;;;;;;;;;14.02;100.00;97603.19;5078989;28;19956;-75
2022/09/13 06:39:30;;;;;;;;;;;;;;;14.07;100.00;97592.38;5075446;28;19952;-75
2022/09/13 06:41:58;;;;;;;;;;;;;;;13.98;100.00;97591.44;5074961;28;19928;-73
2022/09/13 06:44:24;;;;;;;;;;;;;;;13.99;100.00;97601.06;5077642;28;19967;-75
2022/09/13 06:46:51;;;;;;;;;;;;;;;14.00;100.00;97597.31;5077857;28;19988;-75
2022/09/13 06:49:17;;;;;;;;;;;;;;;14.16;100.00;97611.31;5076290;28;19971;-74
2022/09/13 06:51:43;;;;;;;;;;;;;;;14.25;100.00;97609.53;5074531;28;19935;-75
2022/09/13 06:54:10;;;;;;;;;;;;;;;14.28;100.00;97616.22;5075616;28;19980;-74
2022/09/13 06:56:37;;;;;;;;;;;;;;;14.52;100.00;97624.97;5077854;28;19952;-75
2022/09/13 06:59:05;;;;;;;;;;;;;;;14.91;100.00;97622.66;5078020;28;20011;-75
2022/09/13 07:01:33;;;;;;;;;;;;;;;15.28;100.00;97618.97;5066582;28;20019;-76
2022/09/13 07:04:01;;;;;;;;;;;;;;;15.63;100.00;97620.94;5066761;28;20364;-75
2022/09/13 07:06:29;;;;;;;;;;;;;;;15.66;100.00;97619.53;5066432;28;19986;-76
2022/09/13 07:08:56;;;;;;;;;;;;;;;15.75;100.00;97620.44;5066129;28;19925;-74
2022/09/13 07:11:24;;;;;;;;;;;;;;;15.47;100.00;97621.56;5066120;28;19984;-75
2022/09/13 07:13:52;;;;;;;;;;;;;;;15.39;100.00;97614.97;5066192;28;19925;-75
2022/09/13 07:16:20;;;;;;;;;;;;;;;15.23;100.00;97604.81;5066364;28;19924;-75
2022/09/13 07:18:50;;;;;;;;;;;;;;;14.73;100.00;97604.69;5066653;28;19928;-74
2022/09/13 07:21:17;;;;;;;;;;;;;;;14.78;100.00;97607.31;5066281;28;19992;-75
2022/09/13 07:23:43;;;;;;;;;;;;;;;14.64;100.00;97614.53;5074553;28;19935;-75
2022/09/13 07:26:10;;;;;;;;;;;;;;;14.53;100.00;97621.19;5074907;28;19987;-75
2022/09/13 07:28:38;;;;;;;;;;;;;;;14.53;100.00;97615.81;5077513;28;19927;-75
2022/09/13 07:31:06;;;;;;;;;;;;;;;14.80;100.00;97629.31;5077696;28;19984;-75
2022/09/13 07:33:34;;;;;;;;;;;;;;;14.72;100.00;97619.25;5074180;28;19928;-75
2022/09/13 07:36:02;;;;;;;;;;;;;;;14.80;100.00;97623.13;5074348;28;19929;-75
2022/09/13 07:38:28;;;;;;;;;;;;;;;14.85;100.00;97623.84;5077925;28;19924;-75
2022/09/13 07:40:56;;;;;;;;;;;;;;;14.86;100.00;97614.66;5078069;28;19955;-74
2022/09/13 07:43:23;;;;;;;;;;;;;;;14.82;100.00;97624.44;5075112;28;19932;-74
2022/09/13 07:45:56;;;;;;;;;;;;;;;14.84;100.00;97619.56;5074084;28;20027;-74
2022/09/13 07:48:23;;;;;;;;;;;;;;;14.97;100.00;97631.44;5076651;28;19929;-76
2022/09/13 07:50:57;;;;;;;;;;;;;;;15.06;100.00;97621.56;5077525;28;19935;-74
2022/09/13 07:53:23;;;;;;;;;;;;;;;15.33;100.00;97618.06;5075265;28;19984;-75
2022/09/13 07:55:50;;;;;;;;;;;;;;;15.42;100.00;97606.28;5073723;28;19995;-76
2022/09/13 07:58:17;;;;;;;;;;;;;;;15.33;100.00;97612.69;5077732;28;20019;-75
2022/09/13 08:00:43;;;;;;;;;;;;;;;15.24;100.00;97609.09;5081654;28;19924;-75
2022/09/13 08:03:10;;;;;;;;;;;;;;;15.31;100.00;97614.88;5081435;28;19987;-76
2022/09/13 08:05:38;;;;;;;;;;;;;;;15.44;100.00;97614.84;5060267;28;19935;-75
2022/09/13 08:08:06;;;;;;;;;;;;;;;15.63;100.00;97628.22;5060109;28;19988;-75
2022/09/13 08:10:32;;;;;;;;;;;;;;;15.73;100.00;97629.91;5069936;28;20029;-74
2022/09/13 08:12:59;;;;;;;;;;;;;;;15.81;100.00;97631.88;5069631;28;19964;-74
2022/09/13 08:15:26;;;;;;;;;;;;;;;15.90;100.00;97636.25;5051651;28;19989;-75
2022/09/13 08:17:52;;;;;;;;;;;;;;;15.97;100.00;97625.03;5069899;28;20011;-75
2022/09/13 08:20:19;;;;;;;;;;;;;;;15.93;100.00;97632.94;5070302;28;19932;-74
2022/09/13 08:22:45;;;;;;;;;;;;;;;15.84;100.00;97633.97;5075508;28;19952;-75
2022/09/13 08:25:13;;;;;;;;;;;;;;;15.86;100.00;97629.88;5079107;28;20022;-74
2022/09/13 08:27:39;;;;;;;;;;;;;;;15.83;100.00;97621.59;5077796;28;19925;-74
2022/09/13 08:30:06;;;;;;;;;;;;;;;15.91;100.00;97623.56;5059754;28;20414;-75
2022/09/13 08:32:32;;;;;;;;;;;;;;;15.97;100.00;97623.16;5081064;28;20004;-75
2022/09/13 08:34:58;;;;;;;;;;;;;;;16.07;100.00;97622.13;5080760;28;20003;-76
2022/09/13 08:37:25;;;;;;;;;;;;;;;16.11;100.00;97618.53;5078334;28;19929;-74
2022/09/13 08:39:51;;;;;;;;;;;;;;;16.14;100.00;97609.81;5077395;28;19951;-76
2022/09/13 08:42:26;;;;;;;;;;;;;;;16.17;100.00;97605.72;5079065;28;19931;-75
2022/09/13 08:44:54;;;;;;;;;;;;;;;16.17;100.00;97611.09;5080530;28;19924;-75
2022/09/13 08:47:24;;;;;;;;;;;;;;;16.37;100.00;97599.06;5078190;28;19980;-76
2022/09/13 08:49:53;;;;;;;;;;;;;;;16.54;100.00;97593.75;5077038;28;19924;-75
2022/09/13 08:52:24;;;;;;;;;;;;;;;16.60;100.00;97581.75;5079984;28;19996;-75
2022/09/13 08:54:52;;;;;;;;;;;;;;;16.63;100.00;97590.03;5080669;28;19988;-76
2022/09/13 08:57:23;;;;;;;;;;;;;;;16.73;100.00;97591.66;5078364;28;19931;-74
2022/09/13 08:59:54;;;;;;;;;;;;;;;16.76;100.00;97596.44;5058707;28;19936;-73
2022/09/13 09:02:25;;;;;;;;;;;;;;;16.89;100.00;97583.97;5078903;28;20020;-75
2022/09/13 09:04:55;;;;;;;;;;;;;;;16.97;100.00;97583.19;5080362;28;19925;-74
2022/09/13 09:07:23;;;;;;;;;;;;;;;17.07;100.00;97580.22;5078114;28;19979;-75
2022/09/13 09:09:52;;;;;;;;;;;;;;;17.09;100.00;97583.41;5076564;28;19925;-74
2022/09/13 09:12:24;;;;;;;;;;;;;;;17.17;100.00;97578.03;5079201;28;19960;-75
2022/09/13 09:14:57;;;;;;;;;;;;;;;17.33;100.00;97588.41;5080213;28;19963;-75
2022/09/13 09:17:25;;;;;;;;;;;;;;;17.41;100.00;97579.50;5076799;28;19984;-74
2022/09/13 09:19:55;;;;;;;;;;;;;;;17.45;100.00;97578.59;5076613;28;19988;-75
2022/09/13 09:22:23;;;;;;;;;;;;;;;17.43;100.00;97569.19;5079648;28;19952;-75
2022/09/13 09:24:51;;;;;;;;;;;;;;;17.54;100.00;97567.78;5079963;28;19992;-73
2022/09/13 09:27:18;;;;;;;;;;;;;;;17.62;100.00;97570.53;5060489;28;19925;-75
2022/09/13 09:29:47;;;;;;;;;;;;;;;17.60;100.00;97566.56;5076633;28;19929;-74
2022/09/13 09:32:37;;;;;;;;;;;;;;;17.61;100.00;97574.34;5078017;28;19960;-73
2022/09/13 09:35:11;;;;;;;;;;;;;;;17.77;100.00;97580.06;5080212;28;19928;-74
2022/09/13 09:37:39;;;;;;;;;;;;;;;17.87;100.00;97585.16;5068034;28;20019;-74
2022/09/13 09:40:08;;;;;;;;;;;;;;;17.88;100.00;97584.06;5067901;28;19925;-74
2022/09/13 09:42:40;;;;;;;;;;;;;;;17.94;100.00;97595.50;5067826;28;19925;-74
2022/09/13 09:45:25;;;;;;;;;;;;;;;17.97;100.00;97584.06;5067773;28;19988;-74
2022/09/13 09:47:54;;;;;;;;;;;;;;;17.99;100.00;97579.91;5068193;28;19921;-74
2022/09/13 09:50:22;;;;;;;;;;;;;;;18.19;100.00;97568.47;5069204;28;19983;-74
2022/09/13 09:52:55;;;;;;;;;;;;;;;18.27;100.00;97564.16;5075920;28;19974;-74
2022/09/13 09:55:25;;;;;;;;;;;;;;;18.32;100.00;97567.47;5078364;28;19924;-73
2022/09/13 09:57:53;;;;;;;;;;;;;;;18.41;100.00;97561.25;5077101;28;19921;-74
2022/09/13 10:00:22;;;;;;;;;;;;;;;18.51;100.00;97558.22;5079153;28;19952;-74
2022/09/13 10:02:49;;;;;;;;;;;;;;;18.53;100.00;97556.00;5080516;28;19924;-74
2022/09/13 10:05:20;;;;;;;;;;;;;;;18.51;100.00;97548.22;5079097;28;19928;-74
2022/09/13 10:07:53;;;;;;;;;;;;;;;18.65;100.00;97539.91;5076621;28;19921;-74
2022/09/13 10:10:21;;;;;;;;;;;;;;;18.57;100.00;97535.34;5060753;28;19972;-74
2022/09/13 10:12:50;;;;;;;;;;;;;;;18.76;100.00;97536.50;5079659;28;19984;-74
2022/09/13 10:15:19;;;;;;;;;;;;;;;18.80;100.00;97536.66;5078208;28;19929;-75
2022/09/13 10:18:00;;;;;;;;;;;;;;;18.92;100.00;97535.97;5076279;28;19960;-74
2022/09/13 10:20:28;;;;;;;;;;;;;;;18.87;100.00;97528.84;5060289;28;19928;-74
2022/09/13 10:23:10;;;;;;;;;;;;;;;19.02;100.00;97531.00;5079833;28;19928;-74
2022/09/13 10:25:37;;;;;;;;;;;;;;;19.03;100.00;97526.38;5067657;28;19980;-74
2022/09/13 10:28:04;;;;;;;;;;;;;;;19.16;100.00;97522.63;5067707;28;19996;-75
2022/09/13 10:30:32;;;;;;;;;;;;;;;19.17;100.00;97525.00;5057745;28;19924;-74
2022/09/13 10:32:59;;;;;;;;;;;;;;;19.13;100.00;97532.19;5075083;28;19974;-74
2022/09/13 10:35:26;;;;;;;;;;;;;;;19.12;100.00;97529.81;5078068;28;20016;-75
2022/09/13 10:37:53;;;;;;;;;;;;;;;19.20;100.00;97540.59;5078826;28;19924;-74
2022/09/13 10:40:25;;;;;;;;;;;;;;;19.21;100.00;97528.66;5076994;28;20019;-74
2022/09/13 10:42:53;;;;;;;;;;;;;;;19.18;100.00;97532.03;5075254;28;19925;-74
2022/09/13 10:45:22;;;;;;;;;;;;;;;19.26;100.00;97533.06;5077083;28;19988;-73
2022/09/13 10:47:51;;;;;;;;;;;;;;;19.21;100.00;97525.94;5078598;28;19924;-74
2022/09/13 10:50:19;;;;;;;;;;;;;;;19.29;100.00;97525.09;5076778;28;20511;-75
2022/09/13 10:52:46;;;;;;;;;;;;;;;19.23;100.00;97525.59;5062520;28;19924;-74
2022/09/13 10:55:24;;;;;;;;;;;;;;;19.30;100.00;97534.00;5076993;28;19980;-74
2022/09/13 10:57:51;;;;;;;;;;;;;;;19.33;100.00;97526.03;5074523;28;19993;-76
2022/09/13 11:00:19;;;;;;;;;;;;;;;19.28;100.00;97520.03;5076413;28;19971;-75
2022/09/13 11:02:59;;;;;;;;;;;;;;;19.17;100.00;97522.31;5077907;28;19924;-76
2022/09/13 11:05:29;;;;;;;;;;;;;;;19.28;100.00;97520.78;5075150;28;19975;-74
2022/09/13 11:08:07;;;;;;;;;;;;;;;19.32;100.00;97519.03;5074373;28;19956;-76
2022/09/13 11:10:38;;;;;;;;;;;;;;;19.38;100.00;97512.28;5074361;28;19920;-74
2022/09/13 11:13:07;;;;;;;;;;;;;;;19.46;100.00;97507.19;5074659;28;20019;-75
2022/09/13 11:15:43;;;;;;;;;;;;;;;19.34;100.00;97503.22;5074892;28;19956;-75
2022/09/13 11:18:17;;;;;;;;;;;;;;;19.51;100.00;97513.19;5074873;28;19924;-75
2022/09/13 11:20:47;;;;;;;;;;;;;;;19.49;100.00;97509.22;5077524;28;19931;-75
2022/09/13 11:23:23;;;;;;;;;;;;;;;19.47;100.00;97503.31;5076945;28;19987;-75
2022/09/13 11:26:03;;;;;;;;;;;;;;;19.46;100.00;97499.84;5074343;28;19991;-75
2022/09/13 11:28:35;;;;;;;;;;;;;;;19.53;100.00;97493.91;5077763;28;19991;-75
2022/09/13 11:31:11;;;;;;;;;;;;;;;19.52;100.00;97489.59;5077455;28;20007;-75
2022/09/13 11:33:44;;;;;;;;;;;;;;;19.59;100.00;97487.16;5065534;28;19992;-75
2022/09/13 11:36:20;;;;;;;;;;;;;;;19.57;100.00;97492.91;5065579;28;20259;-75
2022/09/13 11:38:55;;;;;;;;;;;;;;;19.71;100.00;97498.81;5047500;28;19997;-74
2022/09/13 11:41:28;;;;;;;;;;;;;;;19.67;100.00;97497.94;5065659;28;20655;-75
2022/09/13 11:44:02;;;;;;;;;;;;;;;19.63;100.00;97490.78;5065669;28;19992;-74
2022/09/13 11:46:35;;;;;;;;;;;;;;;19.62;100.00;97489.22;5065463;28;19925;-74
2022/09/13 11:49:16;;;;;;;;;;;;;;;19.59;100.00;97500.72;5065521;28;19988;-74
2022/09/13 11:51:50;;;;;;;;;;;;;;;19.59;100.00;97485.22;5073788;28;19925;-75
2022/09/13 11:54:22;;;;;;;;;;;;;;;19.62;100.00;97479.16;5075759;28;20448;-75
2022/09/13 11:56:53;;;;;;;;;;;;;;;19.61;100.00;97468.66;5075774;28;19999;-74
2022/09/13 11:59:23;;;;;;;;;;;;;;;19.69;100.00;97463.16;5075382;28;19925;-74
2022/09/13 12:01:52;;;;;;;;;;;;;;;19.69;100.00;97456.94;5073346;28;19935;-75
2022/09/13 12:04:22;;;;;;;;;;;;;;;19.71;100.00;97455.47;5075468;28;19994;-74
2022/09/13 12:06:53;;;;;;;;;;;;;;;19.89;100.00;97462.34;5076996;28;20007;-74
2022/09/13 12:09:21;;;;;;;;;;;;;;;19.94;100.00;97458.63;5075215;28;20390;-74
2022/09/13 12:11:50;;;;;;;;;;;;;;;20.08;100.00;97469.19;5073900;28;20038;-75
2022/09/13 12:14:21;;;;;;;;;;;;;;;20.14;100.00;97468.63;5075395;28;19928;-74
2022/09/13 12:16:49;;;;;;;;;;;;;;;20.16;100.00;97479.91;5077326;28;19929;-76
2022/09/13 12:19:18;;;;;;;;;;;;;;;20.22;100.00;97478.56;5075335;28;19924;-75
2022/09/13 12:21:47;;;;;;;;;;;;;;;19.98;100.00;97467.69;5073221;28;20599;-75
2022/09/13 12:24:16;;;;;;;;;;;;;;;20.23;100.00;97471.25;5074764;28;20592;-75
2022/09/13 12:26:46;;;;;;;;;;;;;;;20.22;100.00;97475.88;5076894;28;19925;-74
2022/09/13 12:29:14;;;;;;;;;;;;;;;20.20;100.00;97472.72;5075688;28;19992;-75
2022/09/13 12:31:42;;;;;;;;;;;;;;;19.91;100.00;97460.09;5073407;28;19977;-75
2022/09/13 12:34:11;;;;;;;;;;;;;;;20.20;100.00;97470.00;5073556;28;20000;-73
2022/09/13 12:36:54;;;;;;;;;;;;;;;20.34;100.00;97472.41;5076750;28;19928;-74
2022/09/13 12:39:33;;;;;;;;;;;;;;;20.20;100.00;97461.88;5074401;28;20011;-74
2022/09/13 12:42:08;;;;;;;;;;;;;;;20.14;100.00;97465.13;5073643;28;19931;-74
2022/09/13 12:44:41;;;;;;;;;;;;;;;20.21;100.00;97476.97;5076222;28;19960;-74